sensor_id;sensor_type;location;lat;lon;timestamp;P1;durP1;ratioP1;P2;durP2;ratioP2
48092;SDS011;33873;47.442;18.902;2023-06-22T00:01:21;11.18;;;4.18;;
48092;SDS011;33873;47.442;18.902;2023-06-22T00:03:52;15.30;;;3.95;;
48092;SDS011;33873;47.442;18.902;2023-06-22T00:06:20;9.13;;;4.03;;
48092;SDS011;33873;47.442;18.902;2023-06-22T00:08:47;9.55;;;3.78;;
48092;SDS011;33873;47.442;18.902;2023-06-22T00:11:15;10.55;;;3.90;;
48092;SDS011;33873;47.442;18.902;2023-06-22T00:13:42;6.18;;;3.65;;
48092;SDS011;33873;47.442;18.902;2023-06-22T00:16:10;9.02;;;3.80;;
48092;SDS011;33873;47.442;18.902;2023-06-22T00:18:38;7.93;;;3.53;;
48092;SDS011;33873;47.442;18.902;2023-06-22T00:21:05;8.85;;;4.18;;
48092;SDS011;33873;47.442;18.902;2023-06-22T00:23:33;11.60;;;4.97;;
48092;SDS011;33873;47.442;18.902;2023-06-22T00:26:02;7.78;;;3.75;;
48092;SDS011;33873;47.442;18.902;2023-06-22T00:28:29;8.13;;;3.83;;
48092;SDS011;33873;47.442;18.902;2023-06-22T00:30:57;9.98;;;2.92;;
48092;SDS011;33873;47.442;18.902;2023-06-22T00:33:25;9.73;;;3.87;;
48092;SDS011;33873;47.442;18.902;2023-06-22T00:35:53;7.05;;;3.40;;
48092;SDS011;33873;47.442;18.902;2023-06-22T00:38:21;15.68;;;4.65;;
48092;SDS011;33873;47.442;18.902;2023-06-22T00:40:49;9.27;;;4.03;;
48092;SDS011;33873;47.442;18.902;2023-06-22T00:43:16;6.85;;;3.45;;
48092;SDS011;33873;47.442;18.902;2023-06-22T00:45:44;8.23;;;3.80;;
48092;SDS011;33873;47.442;18.902;2023-06-22T00:48:11;7.82;;;3.42;;
48092;SDS011;33873;47.442;18.902;2023-06-22T00:50:40;6.53;;;3.50;;
48092;SDS011;33873;47.442;18.902;2023-06-22T00:53:08;10.45;;;4.00;;
48092;SDS011;33873;47.442;18.902;2023-06-22T00:55:39;12.50;;;5.03;;
48092;SDS011;33873;47.442;18.902;2023-06-22T00:58:10;8.57;;;3.50;;
48092;SDS011;33873;47.442;18.902;2023-06-22T01:00:39;6.70;;;3.85;;
48092;SDS011;33873;47.442;18.902;2023-06-22T01:03:07;14.75;;;4.43;;
48092;SDS011;33873;47.442;18.902;2023-06-22T01:05:38;7.62;;;4.15;;
48092;SDS011;33873;47.442;18.902;2023-06-22T01:11:05;13.85;;;3.85;;
48092;SDS011;33873;47.442;18.902;2023-06-22T01:16:27;12.52;;;4.30;;
48092;SDS011;33873;47.442;18.902;2023-06-22T01:18:57;10.50;;;4.03;;
48092;SDS011;33873;47.442;18.902;2023-06-22T01:21:28;8.05;;;3.72;;
48092;SDS011;33873;47.442;18.902;2023-06-22T01:24:11;10.18;;;4.00;;
48092;SDS011;33873;47.442;18.902;2023-06-22T01:27:05;9.25;;;3.72;;
48092;SDS011;33873;47.442;18.902;2023-06-22T01:29:37;8.23;;;3.65;;
48092;SDS011;33873;47.442;18.902;2023-06-22T01:32:06;9.00;;;4.05;;
48092;SDS011;33873;47.442;18.902;2023-06-22T01:34:36;7.85;;;4.03;;
48092;SDS011;33873;47.442;18.902;2023-06-22T01:37:04;6.95;;;3.25;;
48092;SDS011;33873;47.442;18.902;2023-06-22T01:39:33;8.32;;;4.00;;
48092;SDS011;33873;47.442;18.902;2023-06-22T01:42:01;10.02;;;3.47;;
48092;SDS011;33873;47.442;18.902;2023-06-22T01:44:29;9.63;;;4.18;;
48092;SDS011;33873;47.442;18.902;2023-06-22T01:46:57;11.32;;;3.30;;
48092;SDS011;33873;47.442;18.902;2023-06-22T01:49:25;8.50;;;3.30;;
48092;SDS011;33873;47.442;18.902;2023-06-22T01:51:52;5.90;;;3.50;;
48092;SDS011;33873;47.442;18.902;2023-06-22T01:54:21;8.77;;;3.72;;
48092;SDS011;33873;47.442;18.902;2023-06-22T01:56:49;5.97;;;3.30;;
48092;SDS011;33873;47.442;18.902;2023-06-22T01:59:26;11.75;;;3.95;;
48092;SDS011;33873;47.442;18.902;2023-06-22T02:02:06;10.18;;;3.80;;
48092;SDS011;33873;47.442;18.902;2023-06-22T02:04:46;8.48;;;3.12;;
48092;SDS011;33873;47.442;18.902;2023-06-22T02:07:17;9.15;;;4.55;;
48092;SDS011;33873;47.442;18.902;2023-06-22T02:09:45;10.13;;;3.28;;
48092;SDS011;33873;47.442;18.902;2023-06-22T02:12:16;6.37;;;2.97;;
48092;SDS011;33873;47.442;18.902;2023-06-22T02:14:47;7.72;;;3.87;;
48092;SDS011;33873;47.442;18.902;2023-06-22T02:17:16;9.35;;;4.03;;
48092;SDS011;33873;47.442;18.902;2023-06-22T02:19:44;8.07;;;3.37;;
48092;SDS011;33873;47.442;18.902;2023-06-22T02:22:14;13.95;;;3.70;;
48092;SDS011;33873;47.442;18.902;2023-06-22T02:24:42;10.00;;;4.28;;
48092;SDS011;33873;47.442;18.902;2023-06-22T02:27:10;9.82;;;3.28;;
48092;SDS011;33873;47.442;18.902;2023-06-22T02:29:38;8.38;;;4.15;;
48092;SDS011;33873;47.442;18.902;2023-06-22T02:32:05;4.50;;;2.85;;
48092;SDS011;33873;47.442;18.902;2023-06-22T02:34:33;8.48;;;3.55;;
48092;SDS011;33873;47.442;18.902;2023-06-22T02:37:01;8.38;;;2.97;;
48092;SDS011;33873;47.442;18.902;2023-06-22T02:39:29;4.68;;;2.45;;
48092;SDS011;33873;47.442;18.902;2023-06-22T02:41:57;7.12;;;4.20;;
48092;SDS011;33873;47.442;18.902;2023-06-22T02:44:24;7.15;;;3.78;;
48092;SDS011;33873;47.442;18.902;2023-06-22T02:46:52;9.13;;;3.70;;
48092;SDS011;33873;47.442;18.902;2023-06-22T02:49:21;8.10;;;3.60;;
48092;SDS011;33873;47.442;18.902;2023-06-22T02:51:49;8.55;;;3.85;;
48092;SDS011;33873;47.442;18.902;2023-06-22T02:54:17;7.35;;;3.87;;
48092;SDS011;33873;47.442;18.902;2023-06-22T02:56:45;8.18;;;3.72;;
48092;SDS011;33873;47.442;18.902;2023-06-22T02:59:12;12.15;;;3.70;;
48092;SDS011;33873;47.442;18.902;2023-06-22T03:01:40;10.57;;;3.17;;
48092;SDS011;33873;47.442;18.902;2023-06-22T03:04:09;5.43;;;2.90;;
48092;SDS011;33873;47.442;18.902;2023-06-22T03:06:37;5.40;;;3.25;;
48092;SDS011;33873;47.442;18.902;2023-06-22T03:09:08;12.57;;;4.20;;
48092;SDS011;33873;47.442;18.902;2023-06-22T03:11:36;7.68;;;3.83;;
48092;SDS011;33873;47.442;18.902;2023-06-22T03:14:03;9.43;;;2.92;;
48092;SDS011;33873;47.442;18.902;2023-06-22T03:16:31;11.65;;;3.53;;
48092;SDS011;33873;47.442;18.902;2023-06-22T03:19:00;11.45;;;3.85;;
48092;SDS011;33873;47.442;18.902;2023-06-22T03:21:28;7.85;;;3.60;;
48092;SDS011;33873;47.442;18.902;2023-06-22T03:23:56;9.77;;;3.87;;
48092;SDS011;33873;47.442;18.902;2023-06-22T03:26:24;8.25;;;3.58;;
48092;SDS011;33873;47.442;18.902;2023-06-22T03:28:54;7.90;;;3.75;;
48092;SDS011;33873;47.442;18.902;2023-06-22T03:31:22;7.20;;;3.35;;
48092;SDS011;33873;47.442;18.902;2023-06-22T03:33:50;10.68;;;3.40;;
48092;SDS011;33873;47.442;18.902;2023-06-22T03:36:18;9.70;;;3.12;;
48092;SDS011;33873;47.442;18.902;2023-06-22T03:38:46;6.60;;;3.47;;
48092;SDS011;33873;47.442;18.902;2023-06-22T03:41:15;8.38;;;3.47;;
48092;SDS011;33873;47.442;18.902;2023-06-22T03:43:43;9.55;;;3.20;;
48092;SDS011;33873;47.442;18.902;2023-06-22T03:46:11;8.48;;;3.53;;
48092;SDS011;33873;47.442;18.902;2023-06-22T03:48:38;12.15;;;4.30;;
48092;SDS011;33873;47.442;18.902;2023-06-22T03:51:06;11.60;;;4.53;;
48092;SDS011;33873;47.442;18.902;2023-06-22T03:53:34;7.15;;;3.35;;
48092;SDS011;33873;47.442;18.902;2023-06-22T03:56:01;8.10;;;3.90;;
48092;SDS011;33873;47.442;18.902;2023-06-22T03:58:29;9.48;;;3.50;;
48092;SDS011;33873;47.442;18.902;2023-06-22T04:01:00;8.05;;;3.45;;
48092;SDS011;33873;47.442;18.902;2023-06-22T04:03:28;7.07;;;4.15;;
48092;SDS011;33873;47.442;18.902;2023-06-22T04:05:55;10.48;;;4.12;;
48092;SDS011;33873;47.442;18.902;2023-06-22T04:08:23;9.57;;;3.67;;
48092;SDS011;33873;47.442;18.902;2023-06-22T04:10:51;9.48;;;3.15;;
48092;SDS011;33873;47.442;18.902;2023-06-22T04:13:18;20.45;;;4.53;;
48092;SDS011;33873;47.442;18.902;2023-06-22T04:15:45;13.05;;;4.10;;
48092;SDS011;33873;47.442;18.902;2023-06-22T04:18:13;6.72;;;3.62;;
48092;SDS011;33873;47.442;18.902;2023-06-22T04:20:41;10.73;;;4.22;;
48092;SDS011;33873;47.442;18.902;2023-06-22T04:23:08;11.12;;;4.78;;
48092;SDS011;33873;47.442;18.902;2023-06-22T04:25:36;6.05;;;3.37;;
48092;SDS011;33873;47.442;18.902;2023-06-22T04:28:03;8.68;;;3.37;;
48092;SDS011;33873;47.442;18.902;2023-06-22T04:30:32;8.13;;;3.95;;
48092;SDS011;33873;47.442;18.902;2023-06-22T04:33:00;6.70;;;3.20;;
48092;SDS011;33873;47.442;18.902;2023-06-22T04:35:28;11.43;;;3.40;;
48092;SDS011;33873;47.442;18.902;2023-06-22T04:37:57;8.30;;;3.62;;
48092;SDS011;33873;47.442;18.902;2023-06-22T04:40:25;9.13;;;2.92;;
48092;SDS011;33873;47.442;18.902;2023-06-22T04:42:53;7.18;;;3.60;;
48092;SDS011;33873;47.442;18.902;2023-06-22T04:45:21;15.00;;;4.18;;
48092;SDS011;33873;47.442;18.902;2023-06-22T04:47:49;8.02;;;3.92;;
48092;SDS011;33873;47.442;18.902;2023-06-22T04:50:16;7.10;;;2.80;;
48092;SDS011;33873;47.442;18.902;2023-06-22T04:52:45;8.15;;;3.40;;
48092;SDS011;33873;47.442;18.902;2023-06-22T04:55:13;10.90;;;3.50;;
48092;SDS011;33873;47.442;18.902;2023-06-22T04:57:45;8.32;;;2.55;;
48092;SDS011;33873;47.442;18.902;2023-06-22T05:00:16;5.97;;;3.03;;
48092;SDS011;33873;47.442;18.902;2023-06-22T05:02:46;7.95;;;4.20;;
48092;SDS011;33873;47.442;18.902;2023-06-22T05:05:14;10.38;;;4.28;;
48092;SDS011;33873;47.442;18.902;2023-06-22T05:07:42;7.62;;;3.37;;
48092;SDS011;33873;47.442;18.902;2023-06-22T05:10:11;8.48;;;3.62;;
48092;SDS011;33873;47.442;18.902;2023-06-22T05:12:40;8.30;;;3.70;;
48092;SDS011;33873;47.442;18.902;2023-06-22T05:15:08;6.82;;;3.58;;
48092;SDS011;33873;47.442;18.902;2023-06-22T05:17:36;20.45;;;5.07;;
48092;SDS011;33873;47.442;18.902;2023-06-22T05:20:10;16.67;;;5.25;;
48092;SDS011;33873;47.442;18.902;2023-06-22T05:22:39;12.57;;;3.58;;
48092;SDS011;33873;47.442;18.902;2023-06-22T05:25:08;12.15;;;3.90;;
48092;SDS011;33873;47.442;18.902;2023-06-22T05:27:37;9.50;;;3.95;;
48092;SDS011;33873;47.442;18.902;2023-06-22T05:30:07;9.40;;;4.95;;
48092;SDS011;33873;47.442;18.902;2023-06-22T05:32:35;13.10;;;4.45;;
48092;SDS011;33873;47.442;18.902;2023-06-22T05:35:03;11.38;;;3.87;;
48092;SDS011;33873;47.442;18.902;2023-06-22T05:37:31;6.53;;;3.45;;
48092;SDS011;33873;47.442;18.902;2023-06-22T05:39:59;8.45;;;3.28;;
48092;SDS011;33873;47.442;18.902;2023-06-22T05:42:28;7.95;;;4.00;;
48092;SDS011;33873;47.442;18.902;2023-06-22T05:44:55;7.05;;;3.80;;
48092;SDS011;33873;47.442;18.902;2023-06-22T05:47:23;11.52;;;4.35;;
48092;SDS011;33873;47.442;18.902;2023-06-22T05:49:51;16.25;;;3.83;;
48092;SDS011;33873;47.442;18.902;2023-06-22T05:52:18;10.25;;;4.05;;
48092;SDS011;33873;47.442;18.902;2023-06-22T05:54:46;12.15;;;3.53;;
48092;SDS011;33873;47.442;18.902;2023-06-22T05:57:13;7.53;;;3.58;;
48092;SDS011;33873;47.442;18.902;2023-06-22T05:59:41;9.20;;;3.45;;
48092;SDS011;33873;47.442;18.902;2023-06-22T06:02:08;9.23;;;3.72;;
48092;SDS011;33873;47.442;18.902;2023-06-22T06:04:36;7.85;;;3.92;;
48092;SDS011;33873;47.442;18.902;2023-06-22T06:07:04;9.52;;;3.90;;
48092;SDS011;33873;47.442;18.902;2023-06-22T06:09:31;8.27;;;4.35;;
48092;SDS011;33873;47.442;18.902;2023-06-22T06:11:59;8.65;;;3.53;;
48092;SDS011;33873;47.442;18.902;2023-06-22T06:14:27;9.43;;;3.67;;
48092;SDS011;33873;47.442;18.902;2023-06-22T06:16:54;8.00;;;3.20;;
48092;SDS011;33873;47.442;18.902;2023-06-22T06:19:22;8.93;;;4.07;;
48092;SDS011;33873;47.442;18.902;2023-06-22T06:21:49;9.25;;;3.65;;
48092;SDS011;33873;47.442;18.902;2023-06-22T06:24:17;9.45;;;3.35;;
48092;SDS011;33873;47.442;18.902;2023-06-22T06:26:45;7.68;;;3.65;;
48092;SDS011;33873;47.442;18.902;2023-06-22T06:29:12;10.00;;;4.32;;
48092;SDS011;33873;47.442;18.902;2023-06-22T06:31:40;10.45;;;3.78;;
48092;SDS011;33873;47.442;18.902;2023-06-22T06:34:08;6.65;;;2.78;;
48092;SDS011;33873;47.442;18.902;2023-06-22T06:36:35;10.70;;;4.50;;
48092;SDS011;33873;47.442;18.902;2023-06-22T06:39:03;9.07;;;3.33;;
48092;SDS011;33873;47.442;18.902;2023-06-22T06:41:31;8.30;;;3.85;;
48092;SDS011;33873;47.442;18.902;2023-06-22T06:44:00;10.75;;;4.00;;
48092;SDS011;33873;47.442;18.902;2023-06-22T06:46:27;7.43;;;3.95;;
48092;SDS011;33873;47.442;18.902;2023-06-22T06:48:55;10.82;;;4.20;;
48092;SDS011;33873;47.442;18.902;2023-06-22T06:51:23;10.52;;;3.67;;
48092;SDS011;33873;47.442;18.902;2023-06-22T06:53:50;11.77;;;4.15;;
48092;SDS011;33873;47.442;18.902;2023-06-22T06:56:18;7.80;;;2.72;;
48092;SDS011;33873;47.442;18.902;2023-06-22T06:58:46;12.60;;;2.87;;
48092;SDS011;33873;47.442;18.902;2023-06-22T07:01:13;7.18;;;3.35;;
48092;SDS011;33873;47.442;18.902;2023-06-22T07:03:41;6.60;;;3.22;;
48092;SDS011;33873;47.442;18.902;2023-06-22T07:06:09;9.50;;;3.45;;
48092;SDS011;33873;47.442;18.902;2023-06-22T07:08:36;10.48;;;3.67;;
48092;SDS011;33873;47.442;18.902;2023-06-22T07:11:04;7.28;;;3.17;;
48092;SDS011;33873;47.442;18.902;2023-06-22T07:13:31;8.50;;;3.42;;
48092;SDS011;33873;47.442;18.902;2023-06-22T07:15:59;7.03;;;3.67;;
48092;SDS011;33873;47.442;18.902;2023-06-22T07:18:27;8.23;;;3.80;;
48092;SDS011;33873;47.442;18.902;2023-06-22T07:20:54;11.93;;;3.67;;
48092;SDS011;33873;47.442;18.902;2023-06-22T07:23:22;12.90;;;3.83;;
48092;SDS011;33873;47.442;18.902;2023-06-22T07:25:50;6.65;;;3.03;;
48092;SDS011;33873;47.442;18.902;2023-06-22T07:28:17;7.60;;;3.95;;
48092;SDS011;33873;47.442;18.902;2023-06-22T07:30:45;9.68;;;3.70;;
48092;SDS011;33873;47.442;18.902;2023-06-22T07:33:13;6.62;;;3.62;;
48092;SDS011;33873;47.442;18.902;2023-06-22T07:35:41;8.93;;;4.00;;
48092;SDS011;33873;47.442;18.902;2023-06-22T07:38:08;10.35;;;3.45;;
48092;SDS011;33873;47.442;18.902;2023-06-22T07:40:36;14.93;;;4.03;;
48092;SDS011;33873;47.442;18.902;2023-06-22T07:43:04;7.72;;;3.67;;
48092;SDS011;33873;47.442;18.902;2023-06-22T07:45:31;12.48;;;4.82;;
48092;SDS011;33873;47.442;18.902;2023-06-22T07:48:02;10.85;;;5.43;;
48092;SDS011;33873;47.442;18.902;2023-06-22T07:50:30;11.02;;;4.65;;
48092;SDS011;33873;47.442;18.902;2023-06-22T07:52:58;9.80;;;5.15;;
48092;SDS011;33873;47.442;18.902;2023-06-22T07:55:26;9.15;;;5.35;;
48092;SDS011;33873;47.442;18.902;2023-06-22T07:57:54;10.63;;;4.57;;
48092;SDS011;33873;47.442;18.902;2023-06-22T08:00:21;11.85;;;4.75;;
48092;SDS011;33873;47.442;18.902;2023-06-22T08:02:49;10.85;;;5.93;;
48092;SDS011;33873;47.442;18.902;2023-06-22T08:05:17;11.40;;;5.55;;
48092;SDS011;33873;47.442;18.902;2023-06-22T08:07:49;11.45;;;6.43;;
48092;SDS011;33873;47.442;18.902;2023-06-22T08:10:17;11.25;;;6.12;;
48092;SDS011;33873;47.442;18.902;2023-06-22T08:12:45;12.85;;;7.68;;
48092;SDS011;33873;47.442;18.902;2023-06-22T08:15:13;8.88;;;6.60;;
48092;SDS011;33873;47.442;18.902;2023-06-22T08:17:41;10.75;;;6.87;;
48092;SDS011;33873;47.442;18.902;2023-06-22T08:20:09;10.10;;;7.28;;
48092;SDS011;33873;47.442;18.902;2023-06-22T08:22:39;12.57;;;6.82;;
48092;SDS011;33873;47.442;18.902;2023-06-22T08:25:10;9.38;;;6.75;;
48092;SDS011;33873;47.442;18.902;2023-06-22T08:27:38;14.27;;;8.43;;
48092;SDS011;33873;47.442;18.902;2023-06-22T08:30:06;13.50;;;6.90;;
48092;SDS011;33873;47.442;18.902;2023-06-22T08:32:34;11.85;;;7.62;;
48092;SDS011;33873;47.442;18.902;2023-06-22T08:35:02;11.27;;;6.72;;
48092;SDS011;33873;47.442;18.902;2023-06-22T08:37:30;11.93;;;6.78;;
48092;SDS011;33873;47.442;18.902;2023-06-22T08:39:59;9.57;;;6.78;;
48092;SDS011;33873;47.442;18.902;2023-06-22T08:42:28;13.43;;;7.93;;
48092;SDS011;33873;47.442;18.902;2023-06-22T08:44:56;11.45;;;7.37;;
48092;SDS011;33873;47.442;18.902;2023-06-22T08:47:23;11.12;;;8.05;;
48092;SDS011;33873;47.442;18.902;2023-06-22T08:49:51;9.73;;;6.95;;
48092;SDS011;33873;47.442;18.902;2023-06-22T08:52:19;14.20;;;7.43;;
48092;SDS011;33873;47.442;18.902;2023-06-22T08:54:47;10.25;;;7.10;;
48092;SDS011;33873;47.442;18.902;2023-06-22T08:57:15;9.15;;;8.02;;
48092;SDS011;33873;47.442;18.902;2023-06-22T08:59:43;11.43;;;7.53;;
48092;SDS011;33873;47.442;18.902;2023-06-22T09:02:11;11.70;;;7.30;;
48092;SDS011;33873;47.442;18.902;2023-06-22T09:04:38;13.88;;;8.57;;
48092;SDS011;33873;47.442;18.902;2023-06-22T09:07:06;12.23;;;8.73;;
48092;SDS011;33873;47.442;18.902;2023-06-22T09:09:34;18.62;;;8.68;;
48092;SDS011;33873;47.442;18.902;2023-06-22T09:12:01;12.10;;;8.32;;
48092;SDS011;33873;47.442;18.902;2023-06-22T09:14:29;12.23;;;7.70;;
48092;SDS011;33873;47.442;18.902;2023-06-22T09:16:57;13.77;;;8.95;;
48092;SDS011;33873;47.442;18.902;2023-06-22T09:19:24;11.02;;;7.60;;
48092;SDS011;33873;47.442;18.902;2023-06-22T09:21:52;12.90;;;8.30;;
48092;SDS011;33873;47.442;18.902;2023-06-22T09:24:20;10.40;;;6.97;;
48092;SDS011;33873;47.442;18.902;2023-06-22T09:26:47;11.90;;;9.07;;
48092;SDS011;33873;47.442;18.902;2023-06-22T09:29:15;14.85;;;8.60;;
48092;SDS011;33873;47.442;18.902;2023-06-22T09:31:42;11.23;;;7.85;;
48092;SDS011;33873;47.442;18.902;2023-06-22T09:34:11;10.80;;;7.80;;
48092;SDS011;33873;47.442;18.902;2023-06-22T09:36:40;15.07;;;8.48;;
48092;SDS011;33873;47.442;18.902;2023-06-22T09:39:08;13.05;;;9.35;;
48092;SDS011;33873;47.442;18.902;2023-06-22T09:41:35;11.55;;;8.23;;
48092;SDS011;33873;47.442;18.902;2023-06-22T09:44:03;13.52;;;9.00;;
48092;SDS011;33873;47.442;18.902;2023-06-22T09:46:31;9.57;;;7.25;;
48092;SDS011;33873;47.442;18.902;2023-06-22T09:48:59;11.93;;;8.75;;
48092;SDS011;33873;47.442;18.902;2023-06-22T09:51:26;9.60;;;6.85;;
48092;SDS011;33873;47.442;18.902;2023-06-22T09:53:54;17.92;;;8.00;;
48092;SDS011;33873;47.442;18.902;2023-06-22T09:56:22;13.98;;;7.55;;
48092;SDS011;33873;47.442;18.902;2023-06-22T09:58:50;13.68;;;7.80;;
48092;SDS011;33873;47.442;18.902;2023-06-22T10:01:20;12.73;;;8.65;;
48092;SDS011;33873;47.442;18.902;2023-06-22T10:03:49;13.57;;;8.75;;
48092;SDS011;33873;47.442;18.902;2023-06-22T10:06:16;12.88;;;7.78;;
48092;SDS011;33873;47.442;18.902;2023-06-22T10:08:44;11.32;;;7.28;;
48092;SDS011;33873;47.442;18.902;2023-06-22T10:11:12;15.73;;;8.10;;
48092;SDS011;33873;47.442;18.902;2023-06-22T10:13:39;10.25;;;6.93;;
48092;SDS011;33873;47.442;18.902;2023-06-22T10:16:07;13.05;;;7.87;;
48092;SDS011;33873;47.442;18.902;2023-06-22T10:18:34;10.02;;;7.95;;
48092;SDS011;33873;47.442;18.902;2023-06-22T10:21:02;11.93;;;7.12;;
48092;SDS011;33873;47.442;18.902;2023-06-22T10:23:29;12.77;;;8.32;;
48092;SDS011;33873;47.442;18.902;2023-06-22T10:25:57;13.70;;;8.95;;
48092;SDS011;33873;47.442;18.902;2023-06-22T10:28:25;12.32;;;8.50;;
48092;SDS011;33873;47.442;18.902;2023-06-22T10:30:53;11.32;;;8.55;;
48092;SDS011;33873;47.442;18.902;2023-06-22T10:33:21;12.82;;;8.30;;
48092;SDS011;33873;47.442;18.902;2023-06-22T10:35:48;13.43;;;7.78;;
48092;SDS011;33873;47.442;18.902;2023-06-22T10:38:16;15.23;;;8.50;;
48092;SDS011;33873;47.442;18.902;2023-06-22T10:40:43;12.35;;;7.55;;
48092;SDS011;33873;47.442;18.902;2023-06-22T10:43:11;11.75;;;7.30;;
48092;SDS011;33873;47.442;18.902;2023-06-22T10:45:39;12.48;;;8.05;;
48092;SDS011;33873;47.442;18.902;2023-06-22T10:48:07;12.57;;;7.87;;
48092;SDS011;33873;47.442;18.902;2023-06-22T10:50:35;12.60;;;7.85;;
48092;SDS011;33873;47.442;18.902;2023-06-22T10:53:02;10.95;;;9.15;;
48092;SDS011;33873;47.442;18.902;2023-06-22T10:55:30;9.82;;;8.10;;
48092;SDS011;33873;47.442;18.902;2023-06-22T10:58:18;9.80;;;6.53;;
48092;SDS011;33873;47.442;18.902;2023-06-22T11:00:46;11.82;;;7.97;;
48092;SDS011;33873;47.442;18.902;2023-06-22T11:03:14;16.75;;;8.10;;
48092;SDS011;33873;47.442;18.902;2023-06-22T11:05:41;10.77;;;7.80;;
48092;SDS011;33873;47.442;18.902;2023-06-22T11:08:09;12.23;;;7.40;;
48092;SDS011;33873;47.442;18.902;2023-06-22T11:10:37;10.27;;;7.10;;
48092;SDS011;33873;47.442;18.902;2023-06-22T11:13:04;12.75;;;8.43;;
48092;SDS011;33873;47.442;18.902;2023-06-22T11:15:39;14.13;;;7.85;;
48092;SDS011;33873;47.442;18.902;2023-06-22T11:18:06;11.20;;;8.05;;
48092;SDS011;33873;47.442;18.902;2023-06-22T11:20:34;7.97;;;6.28;;
48092;SDS011;33873;47.442;18.902;2023-06-22T11:23:06;11.18;;;7.32;;
48092;SDS011;33873;47.442;18.902;2023-06-22T11:25:33;14.00;;;8.82;;
48092;SDS011;33873;47.442;18.902;2023-06-22T11:28:05;12.37;;;8.52;;
48092;SDS011;33873;47.442;18.902;2023-06-22T11:30:33;13.32;;;8.80;;
48092;SDS011;33873;47.442;18.902;2023-06-22T11:33:01;11.18;;;6.60;;
48092;SDS011;33873;47.442;18.902;2023-06-22T11:35:28;12.05;;;7.47;;
48092;SDS011;33873;47.442;18.902;2023-06-22T11:37:56;9.65;;;6.10;;
48092;SDS011;33873;47.442;18.902;2023-06-22T11:40:24;15.07;;;7.18;;
48092;SDS011;33873;47.442;18.902;2023-06-22T11:42:51;11.32;;;6.82;;
48092;SDS011;33873;47.442;18.902;2023-06-22T11:45:19;10.85;;;7.70;;
48092;SDS011;33873;47.442;18.902;2023-06-22T11:47:47;14.10;;;7.28;;
48092;SDS011;33873;47.442;18.902;2023-06-22T11:50:15;9.05;;;6.80;;
48092;SDS011;33873;47.442;18.902;2023-06-22T11:52:42;12.77;;;7.53;;
48092;SDS011;33873;47.442;18.902;2023-06-22T11:55:10;10.50;;;7.30;;
48092;SDS011;33873;47.442;18.902;2023-06-22T11:57:38;13.15;;;7.85;;
48092;SDS011;33873;47.442;18.902;2023-06-22T12:00:06;12.98;;;8.00;;
48092;SDS011;33873;47.442;18.902;2023-06-22T12:02:45;12.32;;;7.82;;
48092;SDS011;33873;47.442;18.902;2023-06-22T12:05:13;11.00;;;7.62;;
48092;SDS011;33873;47.442;18.902;2023-06-22T12:07:40;13.88;;;8.23;;
48092;SDS011;33873;47.442;18.902;2023-06-22T12:10:08;17.02;;;8.38;;
48092;SDS011;33873;47.442;18.902;2023-06-22T12:12:36;10.48;;;6.85;;
48092;SDS011;33873;47.442;18.902;2023-06-22T12:15:03;11.73;;;6.55;;
48092;SDS011;33873;47.442;18.902;2023-06-22T12:17:32;11.68;;;7.15;;
48092;SDS011;33873;47.442;18.902;2023-06-22T12:19:59;10.68;;;5.97;;
48092;SDS011;33873;47.442;18.902;2023-06-22T12:22:27;11.55;;;6.47;;
48092;SDS011;33873;47.442;18.902;2023-06-22T12:24:54;12.68;;;6.10;;
48092;SDS011;33873;47.442;18.902;2023-06-22T12:27:22;14.87;;;7.45;;
48092;SDS011;33873;47.442;18.902;2023-06-22T12:29:50;9.60;;;5.68;;
48092;SDS011;33873;47.442;18.902;2023-06-22T12:32:17;9.75;;;6.28;;
48092;SDS011;33873;47.442;18.902;2023-06-22T12:34:45;15.57;;;7.03;;
48092;SDS011;33873;47.442;18.902;2023-06-22T12:37:13;10.40;;;6.32;;
48092;SDS011;33873;47.442;18.902;2023-06-22T12:39:41;11.85;;;7.68;;
48092;SDS011;33873;47.442;18.902;2023-06-22T12:42:08;10.43;;;6.40;;
48092;SDS011;33873;47.442;18.902;2023-06-22T12:44:37;12.65;;;6.70;;
48092;SDS011;33873;47.442;18.902;2023-06-22T12:47:05;11.57;;;6.32;;
48092;SDS011;33873;47.442;18.902;2023-06-22T12:49:33;10.50;;;6.25;;
48092;SDS011;33873;47.442;18.902;2023-06-22T12:52:02;8.75;;;6.25;;
48092;SDS011;33873;47.442;18.902;2023-06-22T12:54:30;9.50;;;6.32;;
48092;SDS011;33873;47.442;18.902;2023-06-22T12:57:09;13.25;;;7.43;;
48092;SDS011;33873;47.442;18.902;2023-06-22T12:59:36;12.32;;;6.90;;
48092;SDS011;33873;47.442;18.902;2023-06-22T13:02:04;11.27;;;6.80;;
48092;SDS011;33873;47.442;18.902;2023-06-22T13:04:32;12.55;;;6.95;;
48092;SDS011;33873;47.442;18.902;2023-06-22T13:07:00;10.32;;;7.12;;
48092;SDS011;33873;47.442;18.902;2023-06-22T13:09:27;15.23;;;7.40;;
48092;SDS011;33873;47.442;18.902;2023-06-22T13:11:55;12.13;;;7.65;;
48092;SDS011;33873;47.442;18.902;2023-06-22T13:14:23;12.00;;;7.22;;
48092;SDS011;33873;47.442;18.902;2023-06-22T13:16:51;14.02;;;7.95;;
48092;SDS011;33873;47.442;18.902;2023-06-22T13:19:18;15.63;;;7.75;;
48092;SDS011;33873;47.442;18.902;2023-06-22T13:21:46;13.13;;;7.65;;
48092;SDS011;33873;47.442;18.902;2023-06-22T13:24:13;11.52;;;6.65;;
48092;SDS011;33873;47.442;18.902;2023-06-22T13:26:41;10.63;;;6.53;;
48092;SDS011;33873;47.442;18.902;2023-06-22T13:29:09;11.77;;;6.20;;
48092;SDS011;33873;47.442;18.902;2023-06-22T13:31:37;9.68;;;6.43;;
48092;SDS011;33873;47.442;18.902;2023-06-22T13:34:04;12.90;;;6.18;;
48092;SDS011;33873;47.442;18.902;2023-06-22T13:36:32;11.07;;;6.55;;
48092;SDS011;33873;47.442;18.902;2023-06-22T13:38:59;9.45;;;6.37;;
48092;SDS011;33873;47.442;18.902;2023-06-22T13:41:27;11.90;;;6.25;;
48092;SDS011;33873;47.442;18.902;2023-06-22T13:43:55;11.27;;;6.68;;
48092;SDS011;33873;47.442;18.902;2023-06-22T13:46:22;11.05;;;6.40;;
48092;SDS011;33873;47.442;18.902;2023-06-22T13:48:50;9.13;;;6.05;;
48092;SDS011;33873;47.442;18.902;2023-06-22T13:51:22;10.10;;;5.90;;
48092;SDS011;33873;47.442;18.902;2023-06-22T13:53:50;11.50;;;4.82;;
48092;SDS011;33873;47.442;18.902;2023-06-22T13:56:18;11.68;;;5.45;;
48092;SDS011;33873;47.442;18.902;2023-06-22T13:58:46;11.18;;;6.40;;
48092;SDS011;33873;47.442;18.902;2023-06-22T14:01:13;10.32;;;7.12;;
48092;SDS011;33873;47.442;18.902;2023-06-22T14:03:44;10.95;;;6.53;;
48092;SDS011;33873;47.442;18.902;2023-06-22T14:06:14;11.18;;;6.25;;
48092;SDS011;33873;47.442;18.902;2023-06-22T14:08:41;9.80;;;6.20;;
48092;SDS011;33873;47.442;18.902;2023-06-22T14:11:09;10.20;;;6.53;;
48092;SDS011;33873;47.442;18.902;2023-06-22T14:13:36;11.77;;;6.30;;
48092;SDS011;33873;47.442;18.902;2023-06-22T14:16:04;10.95;;;6.30;;
48092;SDS011;33873;47.442;18.902;2023-06-22T14:18:33;9.07;;;6.07;;
48092;SDS011;33873;47.442;18.902;2023-06-22T14:21:00;10.73;;;6.95;;
48092;SDS011;33873;47.442;18.902;2023-06-22T14:23:28;10.70;;;7.03;;
48092;SDS011;33873;47.442;18.902;2023-06-22T14:25:56;10.77;;;7.03;;
48092;SDS011;33873;47.442;18.902;2023-06-22T14:28:23;11.60;;;7.30;;
48092;SDS011;33873;47.442;18.902;2023-06-22T14:30:51;15.00;;;5.97;;
48092;SDS011;33873;47.442;18.902;2023-06-22T14:33:18;13.13;;;6.45;;
48092;SDS011;33873;47.442;18.902;2023-06-22T14:35:46;9.32;;;6.53;;
48092;SDS011;33873;47.442;18.902;2023-06-22T14:38:14;10.68;;;6.30;;